Latest Weather Observations for Goulburn Airport

IDN60901

Issued at 6:41 am EST Friday 28 April 2017 (issued every 10 minutes, with the page automatically refreshed every 10 minutes)

About weather observations | Map of Canberra area stations | Latest observations for Canberra area | Other Formats
Station Details ID: 070330 Name: GOULBURN AIRPORT AWS Lat: -34.81 Lon: 149.73 Height: 640.0 m
Data from the previous 72 hours. | See also: Recent months at Goulburn Airport
Date/Time
EST
Temp
°C
App
Temp
°C
Dew
Point
°C
Rel
Hum
%
Delta-T
°C
Wind Press
QNH
hPa
Press
MSL
hPa
Rain since
9am
mm
Dir  Spd
km/h
Gust
km/h
Spd
kts
Gust
kts
28/06:33am -3.2 -5.7 -3.7 96 0.0 CALM 0 0 0 0 1022.4 1021.6 0.0
28/06:30am -3.3 -5.8 -4.0 95 0.1 CALM 0 0 0 0 1022.3 1021.5 0.0
28/06:28am -3.3 -5.8 -4.0 95 0.1 CALM 0 0 0 0 1022.3 1021.5 0.0
28/06:15am -3.5 -6.0 -4.2 95 0.1 CALM 0 0 0 0 1022.4 1021.6 0.0
28/06:06am -3.3 -5.8 -4.0 95 0.1 CALM 0 0 0 0 1022.3 1021.5 0.0
28/06:00am -3.4 -6.0 -4.5 92 0.2 CALM 0 0 0 0 1022.3 1021.5 0.0
28/05:55am -3.5 -6.1 -4.6 92 0.2 CALM 0 0 0 0 1022.2 1021.4 0.0
28/05:30am -2.3 -4.7 -2.8 96 0.1 CALM 0 0 0 0 1022.1 1021.3 0.0
28/05:00am -2.9 -5.7 -3.7 94 0.1 SW 2 7 1 4 1021.9 1021.1 0.0
28/04:30am -2.0 -4.3 -2.6 96 0.1 CALM 0 0 0 0 1021.7 1020.8 0.0
28/04:00am -1.5 -3.8 -2.1 96 0.1 CALM 0 0 0 0 1021.4 1020.6 0.0
28/03:30am -1.8 -4.1 -2.4 96 0.1 CALM 0 0 0 0 1021.4 1020.6 0.0
28/03:00am -1.7 -4.4 -2.4 95 0.2 SW 2 6 1 3 1021.3 1020.5 0.0
28/02:30am -0.7 -3.6 -1.1 97 0.1 SSW 4 9 2 5 1021.2 1020.4 0.0
28/02:00am -1.4 -4.1 -2.1 95 0.2 S 2 9 1 5 1021.3 1020.5 0.0
28/01:30am -1.3 -3.6 -2.3 93 0.3 CALM 0 0 0 0 1021.2 1020.4 0.0
28/01:00am -0.1 -2.2 -0.8 95 0.3 CALM 0 0 0 0 1021.3 1020.5 0.0
28/12:30am 0.0 -2.1 -0.8 94 0.3 CALM 0 0 0 0 1021.3 1020.5 0.0
28/12:00am 0.2 -1.9 -0.8 93 0.4 CALM 0 0 0 0 1021.3 1020.5 0.0
 
Date/Time
EST
Temp
°C
App
Temp
°C
Dew
Point
°C
Rel
Hum
%
Delta-T
°C
Wind Press
QNH
hPa
Press
MSL
hPa
Rain since
9am
mm
Dir  Spd
km/h
Gust
km/h
Spd
kts
Gust
kts
27/11:30pm 0.5 -1.5 -0.4 94 0.3 CALM 0 0 0 0 1021.2 1020.4 0.0
27/11:00pm 0.5 -2.3 -0.4 94 0.3 S 4 7 2 4 1021.3 1020.5 0.0
27/10:30pm 0.5 -1.6 -0.5 93 0.4 CALM 0 0 0 0 1021.2 1020.4 0.0
27/10:00pm 1.2 -0.8 -0.3 90 0.6 CALM 0 0 0 0 1020.9 1020.1 0.0
27/09:30pm 2.5 0.7 0.9 89 0.6 CALM 0 0 0 0 1020.5 1019.7 0.0
27/09:00pm 3.1 1.3 1.3 88 0.7 CALM 0 0 0 0 1020.6 1019.8 0.0
27/08:30pm 3.5 1.2 0.6 81 1.2 S 2 7 1 4 1020.4 1019.6 0.0
27/08:00pm 5.3 2.5 2.1 80 1.3 S 6 9 3 5 1020.1 1019.2 0.0
27/07:30pm 7.6 4.1 3.3 74 1.9 WSW 11 15 6 8 1020.1 1019.2 0.0
27/07:00pm 6.0 4.4 2.5 78 1.5 CALM 0 6 0 3 1020.0 1019.1 0.0
27/06:30pm 7.0 3.6 2.1 71 2.1 WSW 9 13 5 7 1019.3 1018.5 0.0
27/06:00pm 8.8 4.7 2.4 64 2.8 WSW 13 15 7 8 1018.8 1017.9 0.0
27/05:30pm 10.2 6.6 2.8 60 3.3 WSW 11 13 6 7 1018.4 1017.5 0.0
27/05:00pm 11.3 7.3 2.6 55 3.9 SW 13 17 7 9 1018.1 1017.3 0.0
27/04:30pm 11.7 7.3 2.7 54 4.1 SW 15 19 8 10 1017.6 1016.7 0.0
27/04:00pm 11.8 7.0 2.8 54 4.1 WSW 17 22 9 12 1017.3 1016.4 0.0
27/03:30pm 11.8 7.0 2.8 54 4.1 WSW 17 22 9 12 1017.0 1016.1 0.0
27/03:00pm 12.4 8.2 3.6 55 4.1 SW 15 20 8 11 1016.7 1015.8 0.0
27/02:30pm 13.3 8.2 2.8 49 4.8 WSW 19 26 10 14 1016.2 1015.3 0.0
27/02:00pm 12.2 8.2 2.6 52 4.3 WSW 13 26 7 14 1016.3 1015.5 0.0
27/01:30pm 11.8 7.0 2.8 54 4.1 SSW 17 22 9 12 1016.2 1015.3 0.0
27/01:00pm 12.3 8.0 3.3 54 4.1 SW 15 24 8 13 1016.3 1015.5 0.0
27/12:30pm 12.5 7.7 2.7 51 4.5 SW 17 26 9 14 1016.6 1015.7 0.0
27/12:00pm 11.6 7.0 1.3 49 4.5 SSW 15 22 8 12 1016.8 1015.9 0.0
27/11:30am 11.4 6.9 2.2 53 4.1 SW 15 22 8 12 1016.8 1015.9 0.0
27/11:00am 10.9 6.4 2.2 55 3.9 WSW 15 22 8 12 1017.1 1016.2 0.0
27/10:30am 10.2 6.8 1.8 56 3.7 SW 9 19 5 10 1017.1 1016.2 0.0
27/10:00am 9.1 6.0 1.3 58 3.3 W 7 15 4 8 1017.4 1016.5 0.0
27/09:30am 8.2 5.1 1.4 62 2.9 W 7 13 4 7 1017.5 1016.6 0.0
27/09:00am 7.3 3.4 1.0 64 2.6 WNW 11 17 6 9 1017.2 1016.3 3.4
27/08:30am 5.9 1.6 0.7 69 2.1 WNW 13 15 7 8 1016.8 1015.9 3.4
27/08:00am 4.5 0.2 0.8 77 1.5 NNW 13 15 7 8 1016.4 1015.6 3.4
27/07:30am 1.9 -1.2 0.4 90 0.6 NW 6 7 3 4 1016.0 1015.1 3.4
27/07:00am -0.6 -4.6 -2.2 89 0.5 NW 9 9 5 5 1015.5 1014.6 3.4
27/06:30am 0.0 -3.6 -1.9 87 0.7 NW 7 7 4 4 1015.0 1014.0 3.4
27/06:00am 0.6 -2.4 -1.5 86 0.8 NW 4 7 2 4 1014.7 1013.8 3.4
27/05:30am 1.2 -2.7 -1.5 82 1.0 WNW 9 11 5 6 1014.4 1013.5 3.4
27/05:00am 2.1 -1.2 -1.2 79 1.2 W 6 7 3 4 1014.2 1013.3 3.4
27/04:30am 2.0 -2.2 -1.1 80 1.2 SW 11 13 6 7 1013.9 1013.0 3.4
27/04:00am 2.3 -3.4 -1.0 79 1.2 WSW 19 20 10 11 1013.4 1012.4 3.4
27/03:30am 2.4 -1.8 -0.9 79 1.2 WSW 11 15 6 8 1013.5 1012.5 3.4
27/03:00am 3.2 -0.9 -0.3 78 1.4 WSW 11 15 6 8 1013.5 1012.5 3.4
27/02:30am 2.7 -1.8 -0.1 82 1.1 W 13 15 7 8 1013.7 1012.8 3.4
27/02:00am 3.5 -0.9 0.4 80 1.2 W 13 15 7 8 1013.7 1012.8 3.4
27/01:30am 4.8 0.5 0.9 76 1.6 WSW 13 17 7 9 1013.4 1012.4 3.4
27/01:00am 6.1 1.9 1.4 72 2.0 WSW 13 17 7 9 1013.3 1012.3 3.4
27/12:30am 6.9 3.2 2.2 72 2.0 W 11 15 6 8 1013.1 1012.2 3.4
27/12:00am 7.1 3.0 2.4 72 2.0 WSW 13 19 7 10 1013.0 1012.1 3.4
 
Date/Time
EST
Temp
°C
App
Temp
°C
Dew
Point
°C
Rel
Hum
%
Delta-T
°C
Wind Press
QNH
hPa
Press
MSL
hPa
Rain since
9am
mm
Dir  Spd
km/h
Gust
km/h
Spd
kts
Gust
kts
26/11:30pm 7.2 3.5 2.5 72 2.0 WSW 11 13 6 7 1012.8 1011.9 3.4
26/11:00pm 7.4 3.0 2.5 71 2.1 WSW 15 20 8 11 1012.6 1011.7 3.4
26/10:30pm 7.6 2.4 2.5 70 2.2 WSW 19 24 10 13 1012.5 1011.6 3.4
26/10:00pm 7.9 2.8 3.0 71 2.2 WSW 19 24 10 13 1012.4 1011.5 3.4
26/09:30pm 8.1 4.4 4.3 77 1.7 WSW 13 19 7 10 1012.1 1011.1 3.4
26/09:00pm 8.7 3.5 3.7 71 2.3 SW 20 30 11 16 1011.9 1010.9 3.4
26/08:30pm 8.8 4.6 5.5 80 1.5 WSW 17 24 9 13 1011.4 1010.5 3.4
26/08:00pm 8.7 5.2 7.0 89 0.8 W 15 20 8 11 1010.8 1009.8 3.4
26/07:30pm 8.6 4.7 7.1 90 0.7 WNW 17 20 9 11 1010.4 1009.4 3.4
26/07:00pm 8.5 4.6 7.1 91 0.7 W 17 24 9 13 1009.7 1008.8 3.4
26/06:30pm 8.4 3.1 7.0 91 0.7 W 24 32 13 17 1009.4 1008.4 3.4
26/06:00pm 8.7 3.4 6.7 87 1.0 W 24 32 13 17 1008.8 1007.8 3.4
26/05:30pm 9.6 3.3 5.8 77 1.8 W 28 44 15 24 1007.8 1006.8 3.4
26/05:00pm 9.7 4.6 5.9 77 1.8 WNW 22 33 12 18 1007.2 1006.2 3.4
26/04:30pm 10.2 3.3 6.4 77 1.8 WNW 32 43 17 23 1006.8 1005.7 3.4
26/04:00pm 10.3 3.1 6.1 75 2.0 WNW 33 43 18 23 1006.3 1005.3 3.4
26/03:30pm 10.3 2.8 6.1 75 2.0 WNW 35 46 19 25 1006.3 1005.3 3.4
26/03:25pm 10.4 2.5 6.0 74 2.1 WNW 37 46 20 25 1006.2 1005.2 3.4
26/03:00pm 12.0 6.7 6.9 71 2.5 W 24 32 13 17 1005.7 1004.7 3.4
26/02:30pm 11.2 6.7 7.1 76 2.0 W 20 28 11 15 1005.4 1004.3 3.4
26/02:00pm 9.8 5.5 7.1 83 1.3 WNW 19 28 10 15 1005.6 1004.6 3.4
26/01:30pm 8.6 2.1 6.4 86 1.1 WNW 30 39 16 21 1006.1 1005.1 3.4
26/01:00pm 9.2 2.5 7.2 87 1.0 WNW 32 44 17 24 1006.1 1005.1 3.2
26/12:40pm 9.6 2.8 7.7 88 0.9 W 33 50 18 27 1005.9 1004.9 3.2
26/12:30pm 9.5 0.8 7.6 88 0.9 W 43 57 23 31 1005.9 1004.9 3.2
26/12:28pm 9.6 0.9 7.5 87 1.0 W 43 59 23 32 1005.9 1004.9 3.2
26/12:20pm 10.6 3.8 7.7 82 1.4 WNW 33 59 18 32 1005.9 1004.9 3.2
26/12:12pm 11.6 5.6 6.9 73 2.3 WNW 28 46 15 25 1005.4 1004.3 2.8
26/12:00pm 13.1 9.1 8.4 73 2.4 W 19 24 10 13 1005.2 1004.1 2.8
26/11:30am 14.1 10.4 8.1 67 3.1 WNW 17 28 9 15 1005.6 1004.6 2.6
26/11:16am 13.5 10.5 9.2 75 2.3 W 15 22 8 12 1005.9 1004.9 2.6
26/11:03am 12.7 9.3 9.2 79 1.8 WNW 17 24 9 13 1006.3 1005.3 2.6
26/11:00am 12.6 9.1 8.9 78 1.9 WNW 17 24 9 13 1006.3 1005.3 2.6
26/10:30am 11.5 8.2 9.6 88 1.0 W 17 20 9 11 1006.7 1005.6 2.6
26/10:01am 10.2 4.6 8.8 91 0.7 W 28 37 15 20 1007.4 1006.4 2.4
26/10:00am 10.2 4.6 8.8 91 0.7 W 28 37 15 20 1007.4 1006.4 2.4
26/09:43am 10.6 2.5 8.5 87 1.1 WNW 41 57 22 31 1007.4 1006.4 1.2
26/09:36am 11.6 6.0 8.6 82 1.5 NW 28 46 15 25 1006.9 1005.9 0.6
26/09:30am 12.6 8.4 9.8 83 1.5 NW 22 28 12 15 1006.8 1005.7 0.4
26/09:12am 14.2 10.5 10.2 77 2.2 NW 20 30 11 16 1006.6 1005.5 0.0
26/09:00am 14.1 10.4 10.1 77 2.2 WNW 20 26 11 14 1006.7 1005.6 1.2
26/08:35am 12.5 8.7 9.7 83 1.5 WNW 20 32 11 17 1007.1 1006.1 1.2
26/08:30am 12.6 8.8 9.8 83 1.5 WNW 20 26 11 14 1007.0 1006.0 1.2
26/08:04am 13.1 9.3 9.9 81 1.7 WNW 20 24 11 13 1007.2 1006.2 1.2
26/08:00am 13.0 9.3 10.0 82 1.6 WNW 20 28 11 15 1007.3 1006.3 1.2
26/07:30am 12.0 8.7 9.6 85 1.3 WNW 17 24 9 13 1007.2 1006.2 1.2
26/07:25am 12.1 9.2 9.7 85 1.3 WNW 15 19 8 10 1007.2 1006.2 1.2
26/07:00am 11.6 9.1 9.7 88 1.0 NW 13 19 7 10 1007.3 1006.3 1.2
26/06:31am 11.5 8.2 9.4 87 1.1 WNW 17 22 9 12 1007.1 1006.1 1.2
26/06:30am 11.5 8.2 9.4 87 1.1 WNW 17 22 9 12 1007.1 1006.1 1.2
26/06:00am 11.7 7.4 9.4 86 1.2 WNW 22 30 12 16 1007.3 1006.3 1.2
26/05:30am 12.4 9.7 10.5 88 1.0 WNW 15 20 8 11 1007.4 1006.4 1.2
26/05:00am 12.0 10.0 10.2 89 1.0 WNW 11 15 6 8 1007.6 1006.6 1.2
26/04:30am 12.5 9.5 10.6 88 1.0 WNW 17 24 9 13 1007.8 1006.8 1.2
26/04:20am 12.5 9.1 10.4 87 1.1 WNW 19 26 10 14 1007.8 1006.8 1.2
26/04:19am 12.5 9.1 10.4 87 1.1 WNW 19 26 10 14 1007.8 1006.8 1.2
26/04:00am 12.9 10.0 11.0 88 1.0 WNW 17 24 9 13 1007.9 1006.9 1.2
26/03:56am 12.9 9.6 11.0 88 1.0 WNW 19 24 10 13 1007.9 1006.9 1.2
26/03:30am 13.0 9.6 10.5 85 1.3 W 19 26 10 14 1007.9 1006.9 1.2
26/03:00am 13.3 10.4 11.0 86 1.3 WNW 17 22 9 12 1007.8 1006.8 1.2
26/02:58am 13.3 10.4 11.0 86 1.3 WNW 17 24 9 13 1007.9 1006.9 1.2
26/02:50am 13.4 9.9 10.9 85 1.4 WNW 20 28 11 15 1008.0 1007.0 1.2
26/02:30am 13.3 10.4 11.0 86 1.3 WNW 17 22 9 12 1008.0 1007.0 1.2
26/02:09am 13.3 9.5 11.0 86 1.3 WNW 22 30 12 16 1008.0 1007.0 1.2
26/02:00am 13.2 10.3 11.1 87 1.1 WNW 17 22 9 12 1008.3 1007.3 1.2
26/01:52am 13.1 10.6 11.2 88 1.0 WNW 15 20 8 11 1008.5 1007.5 1.2
26/01:30am 13.4 10.1 11.5 88 1.0 WNW 20 32 11 17 1008.7 1007.7 1.2
26/01:28am 13.5 9.8 11.4 87 1.2 WNW 22 32 12 17 1008.7 1007.7 1.2
26/01:00am 13.5 10.1 11.2 86 1.3 WNW 20 30 11 16 1008.9 1007.9 1.2
26/12:54am 13.4 10.6 11.3 87 1.1 WNW 17 24 9 13 1009.0 1008.0 1.2
26/12:30am 13.0 9.8 11.1 88 1.0 WNW 19 24 10 13 1009.0 1008.0 1.2
26/12:23am 13.0 9.8 11.1 88 1.0 WNW 19 24 10 13 1009.1 1008.1 1.2
26/12:00am 12.8 10.7 11.0 89 1.0 WNW 13 19 7 10 1009.2 1008.2 1.2
 
Date/Time
EST
Temp
°C
App
Temp
°C
Dew
Point
°C
Rel
Hum
%
Delta-T
°C
Wind Press
QNH
hPa
Press
MSL
hPa
Rain since
9am
mm
Dir  Spd
km/h
Gust
km/h
Spd
kts
Gust
kts
25/11:30pm 13.5 10.8 11.6 88 1.0 WNW 17 22 9 12 1009.6 1008.7 1.2
25/11:00pm 13.5 10.7 11.4 87 1.2 WNW 17 20 9 11 1009.6 1008.7 1.2
25/10:33pm 13.5 11.2 11.7 89 1.0 WNW 15 20 8 11 1009.9 1008.9 1.0
25/10:30pm 13.3 10.9 11.5 89 1.0 WNW 15 20 8 11 1009.9 1008.9 1.0
25/10:16pm 13.3 10.9 11.5 89 1.0 NW 15 19 8 10 1010.1 1009.1 1.0
25/10:00pm 13.3 9.9 11.2 87 1.1 WNW 20 30 11 16 1010.0 1009.0 1.0
25/09:30pm 13.0 10.6 11.4 90 0.9 WNW 15 20 8 11 1010.2 1009.2 1.0
25/09:00pm 13.1 11.1 11.5 90 0.9 NW 13 17 7 9 1010.2 1009.2 1.0
25/08:30pm 13.7 10.5 11.9 89 1.0 WNW 20 28 11 15 1010.3 1009.3 1.0
25/08:18pm 13.8 10.9 12.2 90 0.9 WNW 19 32 10 17 1010.4 1009.4 1.0
25/08:00pm 13.8 10.8 12.0 89 1.0 WNW 19 24 10 13 1010.2 1009.2 1.0
25/07:56pm 13.9 10.9 12.1 89 1.0 WNW 19 24 10 13 1010.2 1009.2 1.0
25/07:55pm 13.9 10.9 12.1 89 1.0 WNW 19 24 10 13 1010.2 1009.2 1.0
25/07:40pm 14.1 11.2 12.3 89 1.0 WNW 19 30 10 16 1010.2 1009.2 1.0
25/07:30pm 14.2 10.0 12.4 89 1.0 WNW 26 33 14 18 1010.0 1009.0 1.0
25/07:29pm 14.2 10.0 12.4 89 1.0 WNW 26 37 14 20 1010.0 1009.0 1.0
25/07:17pm 14.5 10.3 12.5 88 1.1 WNW 26 39 14 21 1009.7 1008.8 1.0
25/07:15pm 14.4 10.7 12.6 89 1.0 NW 24 33 13 18 1009.7 1008.8 1.0
25/07:02pm 14.6 11.0 13.0 90 0.9 NW 24 35 13 19 1009.6 1008.7 1.0
25/07:00pm 14.5 10.9 12.9 90 0.9 NW 24 33 13 18 1009.5 1008.5 1.0
25/06:30pm 15.1 12.1 12.6 85 1.4 NW 20 30 11 16 1009.4 1008.4 0.8
25/06:10pm 14.9 12.2 12.9 88 1.1 NW 19 24 10 13 1009.3 1008.3 0.8
25/06:00pm 15.0 12.4 13.2 89 1.0 NW 19 26 10 14 1009.3 1008.3 0.8
25/05:30pm 14.9 12.3 13.3 90 0.9 NW 19 26 10 14 1009.2 1008.2 0.8
25/05:00pm 15.5 12.2 12.8 84 1.5 NW 22 33 12 18 1009.0 1008.0 0.8
25/04:30pm 15.8 11.3 12.7 82 1.8 NW 28 39 15 21 1008.6 1007.6 0.8
25/04:10pm 15.6 11.2 12.9 84 1.5 NW 28 35 15 19 1008.6 1007.6 0.8
25/04:00pm 15.8 11.4 12.9 83 1.7 NW 28 37 15 20 1008.6 1007.6 0.8
25/03:30pm 16.2 10.7 12.6 79 2.1 NW 33 48 18 26 1008.8 1007.8 0.8
25/03:12pm 16.7 11.8 12.7 77 2.3 NNW 30 43 16 23 1008.9 1007.9 0.8
25/03:00pm 16.4 12.1 13.1 81 1.9 NW 28 37 15 20 1009.0 1008.0 0.8
25/02:30pm 16.0 11.7 13.3 84 1.6 NW 28 41 15 22 1009.2 1008.2 0.8
25/02:11pm 15.6 11.7 13.4 87 1.3 NNW 26 32 14 17 1009.4 1008.4 0.8
25/02:07pm 15.7 12.0 13.9 89 1.0 NW 26 35 14 19 1009.5 1008.5 0.8
25/02:00pm 15.5 11.3 13.5 88 1.2 NW 28 39 15 21 1009.5 1008.5 0.8
25/01:30pm 15.6 12.1 13.4 87 1.3 NW 24 32 13 17 1010.5 1009.5 0.4
25/01:26pm 15.6 12.2 13.8 89 1.0 NW 24 35 13 19 1010.6 1009.6 0.4
25/01:02pm 15.6 10.7 13.6 88 1.2 NNW 32 43 17 23 1010.8 1009.8 0.2
25/01:00pm 15.5 10.5 13.3 87 1.3 NNW 32 46 17 25 1010.8 1009.8 0.2
25/12:51pm 15.5 10.4 13.2 86 1.3 NNW 32 43 17 23 1010.9 1010.0 0.2
25/12:30pm 16.0 11.2 12.9 82 1.8 NNW 30 39 16 21 1011.0 1010.1 0.0
25/12:00pm 16.0 11.7 13.1 83 1.7 NW 28 39 15 21 1011.8 1010.8 0.0
25/11:32am 17.3 11.0 12.2 72 2.9 NW 37 56 20 30 1012.3 1011.4 0.0
25/11:30am 17.3 11.0 12.2 72 2.9 NW 37 54 20 29 1012.3 1011.4 0.0
25/11:01am 18.7 13.1 11.5 63 4.1 NNW 32 50 17 27 1012.4 1011.5 0.0
25/11:00am 18.9 13.7 11.5 62 4.2 NNW 30 41 16 22 1012.4 1011.5 0.0
25/10:30am 20.1 14.0 11.8 59 4.7 NNW 35 48 19 26 1012.3 1011.4 0.0
25/10:05am 20.0 13.1 11.5 58 4.8 NNW 39 59 21 32 1012.4 1011.5 0.0
25/10:00am 19.8 12.5 11.6 59 4.7 NNW 41 57 22 31 1012.4 1011.5 0.0
25/09:52am 20.0 13.8 11.5 58 4.8 NNW 35 56 19 30 1012.4 1011.5 0.0
25/09:30am 18.9 13.6 12.4 66 3.7 N 32 43 17 23 1012.7 1011.8 0.0
25/09:00am 17.1 11.6 11.8 71 3.0 N 32 39 17 21 1013.3 1012.3 0.2
25/08:30am 16.4 12.9 12.2 76 2.4 N 22 32 12 17 1013.8 1012.9 0.2
25/08:00am 15.3 14.9 12.4 83 1.6 NNE 6 9 3 5 1014.1 1013.2 0.2
25/07:30am 14.8 13.4 12.3 85 1.4 N 11 17 6 9 1014.0 1013.1 0.2
25/07:00am 13.8 12.7 11.8 88 1.1 N 9 13 5 7 1014.4 1013.5 0.0

Latest Capital City Observations: Canberra | Sydney | Melbourne | Brisbane | Adelaide | Perth | Hobart | Darwin

Other Formats:

Comma delimited format used in spreadsheet applications
http://www.bom.gov.au/fwo/IDN60903/IDN60903.95716.axf

JavaScript Object Notation format (JSON) in row-major order
http://www.bom.gov.au/fwo/IDN60903/IDN60903.95716.json